sensor_id;sensor_type;location;lat;lon;timestamp;pressure;altitude;pressure_sealevel;temperature;humidity
75221;BME280;63802;53.232;6.570;2023-03-20T00:00:32;101885.47;;;6.78;90.05
75221;BME280;63802;53.232;6.570;2023-03-20T00:02:58;101886.09;;;6.75;90.06
75221;BME280;63802;53.232;6.570;2023-03-20T00:05:26;101889.16;;;6.82;89.93
75221;BME280;63802;53.232;6.570;2023-03-20T00:07:53;101892.19;;;6.81;90.23
75221;BME280;63802;53.232;6.570;2023-03-20T00:10:20;101904.63;;;6.82;90.25
75221;BME280;63802;53.232;6.570;2023-03-20T00:12:47;101916.28;;;6.82;90.20
75221;BME280;63802;53.232;6.570;2023-03-20T00:15:23;101907.50;;;6.77;89.94
75221;BME280;63802;53.232;6.570;2023-03-20T00:17:50;101909.09;;;6.78;89.69
75221;BME280;63802;53.232;6.570;2023-03-20T00:20:16;101913.91;;;6.81;89.70
75221;BME280;63802;53.232;6.570;2023-03-20T00:22:41;101915.47;;;6.82;90.06
75221;BME280;63802;53.232;6.570;2023-03-20T00:25:12;101913.19;;;6.66;89.56
75221;BME280;63802;53.232;6.570;2023-03-20T00:27:38;101913.19;;;6.66;89.51
75221;BME280;63802;53.232;6.570;2023-03-20T00:32:40;101921.97;;;6.72;89.77
75221;BME280;63802;53.232;6.570;2023-03-20T00:35:20;101918.75;;;6.70;89.40
75221;BME280;63802;53.232;6.570;2023-03-20T00:37:46;101923.03;;;6.62;89.32
75221;BME280;63802;53.232;6.570;2023-03-20T00:40:12;101926.25;;;6.64;89.67
75221;BME280;63802;53.232;6.570;2023-03-20T00:42:38;101934.88;;;6.66;89.45
75221;BME280;63802;53.232;6.570;2023-03-20T00:45:04;101940.91;;;6.63;89.52
75221;BME280;63802;53.232;6.570;2023-03-20T00:47:34;101933.38;;;6.60;89.58
75221;BME280;63802;53.232;6.570;2023-03-20T00:50:12;101927.47;;;6.58;89.76
75221;BME280;63802;53.232;6.570;2023-03-20T00:52:39;101934.88;;;6.66;89.67
75221;BME280;63802;53.232;6.570;2023-03-20T00:55:05;101932.66;;;6.68;89.54
75221;BME280;63802;53.232;6.570;2023-03-20T00:57:39;101940.91;;;6.63;89.76
75221;BME280;63802;53.232;6.570;2023-03-20T01:02:46;101940.59;;;6.65;89.62
75221;BME280;63802;53.232;6.570;2023-03-20T01:05:12;101939.81;;;6.64;89.92
75221;BME280;63802;53.232;6.570;2023-03-20T01:07:38;101937.22;;;6.59;89.69
75221;BME280;63802;53.232;6.570;2023-03-20T01:10:04;101946.31;;;6.63;89.71
75221;BME280;63802;53.232;6.570;2023-03-20T01:12:30;101944.22;;;6.60;89.95
75221;BME280;63802;53.232;6.570;2023-03-20T01:14:56;101945.34;;;6.59;89.84
75221;BME280;63802;53.232;6.570;2023-03-20T01:17:24;101954.47;;;6.63;90.17
75221;BME280;63802;53.232;6.570;2023-03-20T01:19:50;101953.38;;;6.64;89.88
75221;BME280;63802;53.232;6.570;2023-03-20T01:22:16;101956.38;;;6.63;89.89
75221;BME280;63802;53.232;6.570;2023-03-20T01:24:42;101932.88;;;6.58;89.65
75221;BME280;63802;53.232;6.570;2023-03-20T01:27:17;101942.53;;;6.64;90.05
75221;BME280;63802;53.232;6.570;2023-03-20T01:29:43;101935.69;;;6.67;89.86
75221;BME280;63802;53.232;6.570;2023-03-20T01:32:15;101915.41;;;6.64;89.97
75221;BME280;63802;53.232;6.570;2023-03-20T01:34:41;101918.41;;;6.63;89.89
75221;BME280;63802;53.232;6.570;2023-03-20T01:37:17;101914.75;;;6.67;89.65
75221;BME280;63802;53.232;6.570;2023-03-20T01:39:46;101912.00;;;6.59;89.96
75221;BME280;63802;53.232;6.570;2023-03-20T01:42:14;101913.78;;;6.63;89.75
75221;BME280;63802;53.232;6.570;2023-03-20T01:44:40;101919.69;;;6.65;89.87
75221;BME280;63802;53.232;6.570;2023-03-20T01:47:14;101919.22;;;6.63;89.88
75221;BME280;63802;53.232;6.570;2023-03-20T01:50:29;101914.75;;;6.67;89.99
75221;BME280;63802;53.232;6.570;2023-03-20T01:53:00;101895.00;;;6.67;90.30
75221;BME280;63802;53.232;6.570;2023-03-20T01:55:27;101886.91;;;6.53;90.27
75221;BME280;63802;53.232;6.570;2023-03-20T01:57:53;101906.63;;;6.67;90.17
75221;BME280;63802;53.232;6.570;2023-03-20T02:00:20;101898.47;;;6.67;90.45
75221;BME280;63802;53.232;6.570;2023-03-20T02:02:48;101898.47;;;6.67;90.31
75221;BME280;63802;53.232;6.570;2023-03-20T02:05:17;101889.25;;;6.68;90.29
75221;BME280;63802;53.232;6.570;2023-03-20T02:07:47;101882.22;;;6.67;90.47
75221;BME280;63802;53.232;6.570;2023-03-20T02:10:14;101878.41;;;6.68;90.44
75221;BME280;63802;53.232;6.570;2023-03-20T02:12:42;101872.97;;;6.68;90.62
75221;BME280;63802;53.232;6.570;2023-03-20T02:15:07;101884.00;;;6.72;90.74
75221;BME280;63802;53.232;6.570;2023-03-20T02:17:33;101867.56;;;6.68;90.74
75221;BME280;63802;53.232;6.570;2023-03-20T02:26:02;101870.13;;;6.73;90.52
75221;BME280;63802;53.232;6.570;2023-03-20T02:29:20;101869.31;;;6.73;91.03
75221;BME280;63802;53.232;6.570;2023-03-20T02:45:28;101852.00;;;6.83;91.45
75221;BME280;63802;53.232;6.570;2023-03-20T02:51:16;101826.13;;;6.77;91.04
75221;BME280;63802;53.232;6.570;2023-03-20T03:01:43;101837.31;;;6.84;91.30
75221;BME280;63802;53.232;6.570;2023-03-20T03:04:20;101840.53;;;6.86;91.69
75221;BME280;63802;53.232;6.570;2023-03-20T03:06:50;101832.06;;;6.87;91.55
75221;BME280;63802;53.232;6.570;2023-03-20T03:09:24;101826.63;;;6.87;91.56
75221;BME280;63802;53.232;6.570;2023-03-20T03:12:03;101834.97;;;6.91;91.87
75221;BME280;63802;53.232;6.570;2023-03-20T03:14:52;101830.63;;;6.90;91.60
75221;BME280;63802;53.232;6.570;2023-03-20T03:17:21;101807.28;;;6.80;91.76
75221;BME280;63802;53.232;6.570;2023-03-20T03:19:51;101810.19;;;6.84;91.33
75221;BME280;63802;53.232;6.570;2023-03-20T03:22:18;101811.97;;;6.88;91.88
75221;BME280;63802;53.232;6.570;2023-03-20T03:24:47;101807.31;;;6.89;91.48
75221;BME280;63802;53.232;6.570;2023-03-20T03:27:17;101812.13;;;6.92;91.58
75221;BME280;63802;53.232;6.570;2023-03-20T03:29:48;101804.13;;;6.87;91.70
75221;BME280;63802;53.232;6.570;2023-03-20T03:32:36;101804.31;;;6.90;91.55
75221;BME280;63802;53.232;6.570;2023-03-20T03:35:12;101806.69;;;6.92;91.69
75221;BME280;63802;53.232;6.570;2023-03-20T03:40:18;101802.88;;;6.93;91.51
75221;BME280;63802;53.232;6.570;2023-03-20T03:42:54;101799.03;;;6.94;91.45
75221;BME280;63802;53.232;6.570;2023-03-20T03:45:32;101795.56;;;6.93;91.42
75221;BME280;63802;53.232;6.570;2023-03-20T03:48:16;101795.72;;;6.97;91.60
75221;BME280;63802;53.232;6.570;2023-03-20T03:50:53;101783.91;;;6.93;91.48
75221;BME280;63802;53.232;6.570;2023-03-20T03:53:28;101783.28;;;6.96;91.39
75221;BME280;63802;53.232;6.570;2023-03-20T03:56:00;101789.19;;;6.98;91.28
75221;BME280;63802;53.232;6.570;2023-03-20T04:00:56;101777.34;;;6.94;91.40
75221;BME280;63802;53.232;6.570;2023-03-20T04:03:28;101765.03;;;6.88;90.81
75221;BME280;63802;53.232;6.570;2023-03-20T04:05:55;101749.72;;;6.83;90.93
75221;BME280;63802;53.232;6.570;2023-03-20T04:08:22;101776.91;;;7.00;90.82
75221;BME280;63802;53.232;6.570;2023-03-20T04:10:48;101780.91;;;7.03;91.01
75221;BME280;63802;53.232;6.570;2023-03-20T04:13:13;101760.44;;;6.97;90.75
75221;BME280;63802;53.232;6.570;2023-03-20T04:15:41;101749.25;;;6.90;90.54
75221;BME280;63802;53.232;6.570;2023-03-20T04:18:06;101757.91;;;7.00;90.19
75221;BME280;63802;53.232;6.570;2023-03-20T04:20:32;101753.25;;;7.01;90.18
75221;BME280;63802;53.232;6.570;2023-03-20T04:22:58;101757.56;;;7.02;89.98
75221;BME280;63802;53.232;6.570;2023-03-20T04:25:24;101760.78;;;7.04;90.18
75221;BME280;63802;53.232;6.570;2023-03-20T04:27:50;101754.53;;;6.95;89.97
75221;BME280;63802;53.232;6.570;2023-03-20T04:30:16;101758.38;;;7.02;89.49
75221;BME280;63802;53.232;6.570;2023-03-20T04:32:42;101753.25;;;7.01;89.64
75221;BME280;63802;53.232;6.570;2023-03-20T04:35:08;101751.97;;;6.98;89.60
75221;BME280;63802;53.232;6.570;2023-03-20T04:37:34;101750.88;;;6.99;89.63
75221;BME280;63802;53.232;6.570;2023-03-20T04:39:59;101746.53;;;6.90;89.10
75221;BME280;63802;53.232;6.570;2023-03-20T04:42:24;101758.19;;;6.99;89.43
75221;BME280;63802;53.232;6.570;2023-03-20T04:44:50;101769.06;;;6.99;88.99
75221;BME280;63802;53.232;6.570;2023-03-20T04:47:15;101763.63;;;6.99;88.85
75221;BME280;63802;53.232;6.570;2023-03-20T04:49:41;101757.25;;;6.95;88.47
75221;BME280;63802;53.232;6.570;2023-03-20T04:52:07;101738.38;;;6.90;88.40
75221;BME280;63802;53.232;6.570;2023-03-20T04:54:33;101740.63;;;6.88;88.15
75221;BME280;63802;53.232;6.570;2023-03-20T04:56:59;101756.63;;;6.98;88.37
75221;BME280;63802;53.232;6.570;2023-03-20T04:59:25;101750.19;;;6.94;87.96
75221;BME280;63802;53.232;6.570;2023-03-20T05:01:50;101743.19;;;6.93;87.96
75221;BME280;63802;53.232;6.570;2023-03-20T05:04:16;101755.19;;;7.00;87.52
75221;BME280;63802;53.232;6.570;2023-03-20T05:06:41;101759.81;;;7.00;87.51
75221;BME280;63802;53.232;6.570;2023-03-20T05:09:08;101764.63;;;7.03;87.59
75221;BME280;63802;53.232;6.570;2023-03-20T05:11:34;101765.84;;;6.97;87.29
75221;BME280;63802;53.232;6.570;2023-03-20T05:14:00;101747.00;;;6.92;87.30
75221;BME280;63802;53.232;6.570;2023-03-20T05:16:25;101766.69;;;7.06;86.65
75221;BME280;63802;53.232;6.570;2023-03-20T05:18:50;101774.81;;;7.06;86.75
75221;BME280;63802;53.232;6.570;2023-03-20T05:21:16;101765.91;;;7.05;86.71
75221;BME280;63802;53.232;6.570;2023-03-20T05:23:41;101764.91;;;7.01;86.89
75221;BME280;63802;53.232;6.570;2023-03-20T05:26:07;101743.81;;;6.90;86.56
75221;BME280;63802;53.232;6.570;2023-03-20T05:28:32;101774.03;;;7.05;86.50
75221;BME280;63802;53.232;6.570;2023-03-20T05:30:57;101766.81;;;7.01;86.72
75221;BME280;63802;53.232;6.570;2023-03-20T05:33:23;101766.34;;;6.99;86.60
75221;BME280;63802;53.232;6.570;2023-03-20T05:35:48;101762.81;;;6.90;86.51
75221;BME280;63802;53.232;6.570;2023-03-20T05:38:14;101751.81;;;6.86;86.30
75221;BME280;63802;53.232;6.570;2023-03-20T05:40:40;101768.09;;;6.95;86.11
75221;BME280;63802;53.232;6.570;2023-03-20T05:43:06;101778.66;;;7.05;86.46
75221;BME280;63802;53.232;6.570;2023-03-20T05:45:32;101784.91;;;7.05;86.46
75221;BME280;63802;53.232;6.570;2023-03-20T05:47:57;101781.84;;;7.07;86.12
75221;BME280;63802;53.232;6.570;2023-03-20T05:50:24;101785.06;;;7.09;85.81
75221;BME280;63802;53.232;6.570;2023-03-20T05:52:49;101782.31;;;7.00;86.18
75221;BME280;63802;53.232;6.570;2023-03-20T05:55:18;101793.53;;;7.07;85.92
75221;BME280;63802;53.232;6.570;2023-03-20T05:57:44;101752.72;;;6.82;85.96
75221;BME280;63802;53.232;6.570;2023-03-20T06:00:10;101782.47;;;7.04;85.94
75221;BME280;63802;53.232;6.570;2023-03-20T06:02:36;101774.47;;;6.99;85.77
75221;BME280;63802;53.232;6.570;2023-03-20T06:05:02;101782.47;;;7.04;85.73
75221;BME280;63802;53.232;6.570;2023-03-20T06:07:28;101763.28;;;6.92;85.76
75221;BME280;63802;53.232;6.570;2023-03-20T06:09:54;101785.06;;;7.09;85.74
75221;BME280;63802;53.232;6.570;2023-03-20T06:12:20;101791.91;;;7.06;85.56
75221;BME280;63802;53.232;6.570;2023-03-20T06:14:46;101782.47;;;7.04;85.57
75221;BME280;63802;53.232;6.570;2023-03-20T06:17:12;101785.06;;;7.09;85.53
75221;BME280;63802;53.232;6.570;2023-03-20T06:19:37;101769.19;;;6.94;85.19
75221;BME280;63802;53.232;6.570;2023-03-20T06:22:03;101791.91;;;7.06;85.35
75221;BME280;63802;53.232;6.570;2023-03-20T06:24:29;101796.88;;;7.13;84.93
75221;BME280;63802;53.232;6.570;2023-03-20T06:26:54;101786.66;;;7.10;84.83
75221;BME280;63802;53.232;6.570;2023-03-20T06:29:19;101773.25;;;7.05;84.74
75221;BME280;63802;53.232;6.570;2023-03-20T06:31:45;101791.94;;;7.15;84.55
75221;BME280;63802;53.232;6.570;2023-03-20T06:34:10;101789.06;;;7.20;84.73
75221;BME280;63802;53.232;6.570;2023-03-20T06:36:36;101770.38;;;7.10;84.73
75221;BME280;63802;53.232;6.570;2023-03-20T06:39:03;101791.63;;;7.25;84.75
75221;BME280;63802;53.232;6.570;2023-03-20T06:41:28;101776.16;;;7.17;84.34
75221;BME280;63802;53.232;6.570;2023-03-20T06:43:54;101771.34;;;7.14;84.28
75221;BME280;63802;53.232;6.570;2023-03-20T06:46:20;101768.47;;;7.19;84.21
75221;BME280;63802;53.232;6.570;2023-03-20T06:48:46;101775.16;;;7.13;84.04
75221;BME280;63802;53.232;6.570;2023-03-20T06:51:13;101775.97;;;7.13;84.17
75221;BME280;63802;53.232;6.570;2023-03-20T06:53:38;101793.41;;;7.29;83.96
75221;BME280;63802;53.232;6.570;2023-03-20T06:56:07;101799.47;;;7.35;84.08
75221;BME280;63802;53.232;6.570;2023-03-20T06:58:33;101800.09;;;7.32;83.94
75221;BME280;63802;53.232;6.570;2023-03-20T07:00:59;101803.34;;;7.34;83.73
75221;BME280;63802;53.232;6.570;2023-03-20T07:03:25;101802.81;;;7.32;83.52
75221;BME280;63802;53.232;6.570;2023-03-20T07:05:51;101811.47;;;7.42;83.19
75221;BME280;63802;53.232;6.570;2023-03-20T07:08:17;101815.81;;;7.52;83.22
75221;BME280;63802;53.232;6.570;2023-03-20T07:10:42;101800.16;;;7.49;83.23
75221;BME280;63802;53.232;6.570;2023-03-20T07:13:08;101822.53;;;7.63;82.78
75221;BME280;63802;53.232;6.570;2023-03-20T07:15:34;101806.09;;;7.60;82.37
75221;BME280;63802;53.232;6.570;2023-03-20T07:18:00;101815.50;;;7.62;82.27
75221;BME280;63802;53.232;6.570;2023-03-20T07:20:26;101808.16;;;7.71;82.40
75221;BME280;63802;53.232;6.570;2023-03-20T07:22:51;101804.97;;;7.86;82.04
75221;BME280;63802;53.232;6.570;2023-03-20T07:25:17;101805.59;;;8.00;81.63
75221;BME280;63802;53.232;6.570;2023-03-20T07:27:44;101814.88;;;7.99;81.31
75221;BME280;63802;53.232;6.570;2023-03-20T07:30:16;101816.47;;;8.00;81.35
75221;BME280;63802;53.232;6.570;2023-03-20T07:32:43;101818.41;;;8.08;81.31
75221;BME280;63802;53.232;6.570;2023-03-20T07:35:11;101821.63;;;8.28;80.95
75221;BME280;63802;53.232;6.570;2023-03-20T07:37:37;101820.63;;;8.41;80.83
75221;BME280;63802;53.232;6.570;2023-03-20T07:40:03;101825.72;;;8.51;80.41
75221;BME280;63802;53.232;6.570;2023-03-20T07:42:29;101830.03;;;8.52;80.20
75221;BME280;63802;53.232;6.570;2023-03-20T07:44:54;101828.44;;;8.42;79.90
75221;BME280;63802;53.232;6.570;2023-03-20T07:47:20;101838.53;;;8.42;79.55
75221;BME280;63802;53.232;6.570;2023-03-20T07:49:46;101832.94;;;8.47;79.83
75221;BME280;63802;53.232;6.570;2023-03-20T07:52:12;101829.59;;;8.41;79.05
75221;BME280;63802;53.232;6.570;2023-03-20T07:54:38;101836.94;;;8.41;79.13
75221;BME280;63802;53.232;6.570;2023-03-20T07:57:06;101831.50;;;8.41;78.93
75221;BME280;63802;53.232;6.570;2023-03-20T07:59:33;101843.78;;;8.55;79.15
75221;BME280;63802;53.232;6.570;2023-03-20T08:01:58;101829.50;;;8.67;78.74
75221;BME280;63802;53.232;6.570;2023-03-20T08:04:23;101835.41;;;8.77;78.52
75221;BME280;63802;53.232;6.570;2023-03-20T08:06:50;101836.22;;;8.78;78.38
75221;BME280;63802;53.232;6.570;2023-03-20T08:09:17;101819.03;;;8.86;78.17
75221;BME280;63802;53.232;6.570;2023-03-20T08:11:43;101833.22;;;9.00;77.86
75221;BME280;63802;53.232;6.570;2023-03-20T08:14:08;101847.69;;;8.92;77.69
75221;BME280;63802;53.232;6.570;2023-03-20T08:16:34;101814.13;;;8.71;77.79
75221;BME280;63802;53.232;6.570;2023-03-20T08:19:00;101818.63;;;8.75;77.18
75221;BME280;63802;53.232;6.570;2023-03-20T08:21:30;101834.66;;;8.60;77.62
75221;BME280;63802;53.232;6.570;2023-03-20T08:23:57;101830.66;;;8.66;78.00
75221;BME280;63802;53.232;6.570;2023-03-20T08:26:23;101812.59;;;8.53;77.88
75221;BME280;63802;53.232;6.570;2023-03-20T08:28:48;101826.03;;;8.58;78.02
75221;BME280;63802;53.232;6.570;2023-03-20T08:31:15;101821.22;;;8.55;78.39
75221;BME280;63802;53.232;6.570;2023-03-20T08:33:45;101826.19;;;8.53;78.33
75221;BME280;63802;53.232;6.570;2023-03-20T08:36:11;101832.88;;;8.64;78.03
75221;BME280;63802;53.232;6.570;2023-03-20T08:38:39;101812.25;;;8.54;77.98
75221;BME280;63802;53.232;6.570;2023-03-20T08:41:06;101816.72;;;8.67;77.80
75221;BME280;63802;53.232;6.570;2023-03-20T08:43:31;101824.47;;;8.86;77.87
75221;BME280;63802;53.232;6.570;2023-03-20T08:45:57;101821.19;;;8.72;77.42
75221;BME280;63802;53.232;6.570;2023-03-20T08:48:22;101815.72;;;8.72;77.72
75221;BME280;63802;53.232;6.570;2023-03-20T08:50:48;101813.41;;;8.91;77.73
75221;BME280;63802;53.232;6.570;2023-03-20T08:53:13;101821.19;;;9.10;77.51
75221;BME280;63802;53.232;6.570;2023-03-20T08:55:39;101821.16;;;9.18;76.66
75221;BME280;63802;53.232;6.570;2023-03-20T08:58:04;101820.56;;;9.33;76.46
75221;BME280;63802;53.232;6.570;2023-03-20T09:00:30;101817.00;;;9.41;75.88
75221;BME280;63802;53.232;6.570;2023-03-20T09:02:56;101828.31;;;9.52;75.88
75221;BME280;63802;53.232;6.570;2023-03-20T09:05:21;101816.69;;;9.64;75.30
75221;BME280;63802;53.232;6.570;2023-03-20T09:07:47;101799.72;;;9.37;75.09
75221;BME280;63802;53.232;6.570;2023-03-20T09:10:12;101810.09;;;9.65;75.01
75221;BME280;63802;53.232;6.570;2023-03-20T09:12:38;101805.94;;;9.88;74.53
75221;BME280;63802;53.232;6.570;2023-03-20T09:15:04;101807.44;;;10.18;74.22
75221;BME280;63802;53.232;6.570;2023-03-20T09:17:31;101807.69;;;10.25;73.68
75221;BME280;63802;53.232;6.570;2023-03-20T09:19:56;101791.41;;;9.96;73.10
75221;BME280;63802;53.232;6.570;2023-03-20T09:22:23;101813.81;;;10.22;73.15
75221;BME280;63802;53.232;6.570;2023-03-20T09:24:49;101805.88;;;10.17;72.52
75221;BME280;63802;53.232;6.570;2023-03-20T09:27:15;101796.91;;;10.08;72.59
75221;BME280;63802;53.232;6.570;2023-03-20T09:29:43;101804.25;;;10.16;72.78
75221;BME280;63802;53.232;6.570;2023-03-20T09:32:13;101794.09;;;10.37;72.75
75221;BME280;63802;53.232;6.570;2023-03-20T09:34:42;101803.44;;;10.36;72.15
75221;BME280;63802;53.232;6.570;2023-03-20T09:37:07;101807.84;;;10.29;71.63
75221;BME280;63802;53.232;6.570;2023-03-20T09:39:33;101812.28;;;10.33;71.90
75221;BME280;63802;53.232;6.570;2023-03-20T09:50:30;101815.97;;;10.49;71.73
75221;BME280;63802;53.232;6.570;2023-03-20T09:53:24;101818.28;;;10.71;71.05
75221;BME280;63802;53.232;6.570;2023-03-20T09:55:47;101811.69;;;10.72;71.05
75221;BME280;63802;53.232;6.570;2023-03-20T10:00:46;101821.25;;;10.78;71.34
75221;BME280;63802;53.232;6.570;2023-03-20T10:03:27;101813.31;;;10.98;71.14
75221;BME280;63802;53.232;6.570;2023-03-20T10:05:58;101794.88;;;10.95;70.70
75221;BME280;63802;53.232;6.570;2023-03-20T10:08:32;101819.69;;;11.26;70.30
75221;BME280;63802;53.232;6.570;2023-03-20T10:12:22;101815.38;;;11.25;70.00
75221;BME280;63802;53.232;6.570;2023-03-20T10:23:05;101802.72;;;11.32;68.71
75221;BME280;63802;53.232;6.570;2023-03-20T10:25:34;101812.31;;;11.66;68.93
75221;BME280;63802;53.232;6.570;2023-03-20T10:28:11;101808.25;;;11.60;68.20
75221;BME280;63802;53.232;6.570;2023-03-20T10:38:47;101817.84;;;10.82;69.94
75221;BME280;63802;53.232;6.570;2023-03-20T10:41:20;101819.66;;;10.77;70.90
75221;BME280;63802;53.232;6.570;2023-03-20T10:43:48;101803.84;;;10.71;71.01
75221;BME280;63802;53.232;6.570;2023-03-20T10:46:31;101799.66;;;10.86;71.07
75221;BME280;63802;53.232;6.570;2023-03-20T10:49:13;101813.09;;;11.15;70.79
75221;BME280;63802;53.232;6.570;2023-03-20T10:51:51;101796.00;;;11.30;70.43
75221;BME280;63802;53.232;6.570;2023-03-20T10:54:39;101803.50;;;11.45;69.48
75221;BME280;63802;53.232;6.570;2023-03-20T10:57:12;101800.63;;;11.66;69.39
75221;BME280;63802;53.232;6.570;2023-03-20T10:59:46;101790.47;;;11.66;68.60
75221;BME280;63802;53.232;6.570;2023-03-20T11:02:17;101804.72;;;11.60;68.33
75221;BME280;63802;53.232;6.570;2023-03-20T11:04:44;101813.16;;;11.42;68.83
75221;BME280;63802;53.232;6.570;2023-03-20T11:07:26;101814.56;;;11.36;68.92
75221;BME280;63802;53.232;6.570;2023-03-20T11:12:35;101795.53;;;11.04;70.04
75221;BME280;63802;53.232;6.570;2023-03-20T11:17:39;101813.53;;;10.81;70.78
75221;BME280;63802;53.232;6.570;2023-03-20T11:20:06;101809.44;;;10.74;71.25
75221;BME280;63802;53.232;6.570;2023-03-20T11:22:33;101795.31;;;10.60;71.19
75221;BME280;63802;53.232;6.570;2023-03-20T11:25:00;101805.31;;;10.68;71.40
75221;BME280;63802;53.232;6.570;2023-03-20T11:27:33;101811.94;;;10.80;71.38
75221;BME280;63802;53.232;6.570;2023-03-20T11:30:02;101806.91;;;10.69;71.75
75221;BME280;63802;53.232;6.570;2023-03-20T11:32:29;101805.44;;;10.72;71.35
75221;BME280;63802;53.232;6.570;2023-03-20T11:34:56;101803.75;;;10.80;71.28
75221;BME280;63802;53.232;6.570;2023-03-20T11:37:45;101772.91;;;10.79;70.63
75221;BME280;63802;53.232;6.570;2023-03-20T11:40:21;101791.91;;;10.88;70.17
75221;BME280;63802;53.232;6.570;2023-03-20T11:42:56;101792.81;;;10.67;70.50
75221;BME280;63802;53.232;6.570;2023-03-20T11:45:23;101757.06;;;10.48;70.77
75221;BME280;63802;53.232;6.570;2023-03-20T11:47:53;101771.16;;;10.50;70.77
75221;BME280;63802;53.232;6.570;2023-03-20T11:50:32;101779.16;;;10.55;70.64
75221;BME280;63802;53.232;6.570;2023-03-20T11:53:16;101785.94;;;10.49;70.58
75221;BME280;63802;53.232;6.570;2023-03-20T11:56:01;101797.44;;;10.22;71.25
75221;BME280;63802;53.232;6.570;2023-03-20T11:58:27;101783.09;;;10.13;71.40
75221;BME280;63802;53.232;6.570;2023-03-20T12:00:56;101789.97;;;10.19;71.53
75221;BME280;63802;53.232;6.570;2023-03-20T12:06:16;101796.75;;;10.13;71.81
75221;BME280;63802;53.232;6.570;2023-03-20T12:09:10;101797.59;;;10.05;72.31
75221;BME280;63802;53.232;6.570;2023-03-20T12:11:57;101786.69;;;10.05;72.81
75221;BME280;63802;53.232;6.570;2023-03-20T12:17:26;101766.41;;;9.94;73.51
75221;BME280;63802;53.232;6.570;2023-03-20T12:19:52;101762.06;;;9.60;74.87
75221;BME280;63802;53.232;6.570;2023-03-20T12:22:33;101774.59;;;9.53;76.71
75221;BME280;63802;53.232;6.570;2023-03-20T12:27:35;101756.47;;;9.57;78.64
75221;BME280;63802;53.232;6.570;2023-03-20T12:30:13;101752.97;;;9.35;79.13
75221;BME280;63802;53.232;6.570;2023-03-20T12:33:01;101765.38;;;9.66;79.41
75221;BME280;63802;53.232;6.570;2023-03-20T12:35:31;101772.00;;;9.77;79.34
75221;BME280;63802;53.232;6.570;2023-03-20T12:37:58;101758.00;;;9.45;79.32
75221;BME280;63802;53.232;6.570;2023-03-20T12:40:43;101774.22;;;9.42;79.56
75221;BME280;63802;53.232;6.570;2023-03-20T12:43:15;101759.44;;;9.22;79.58
75221;BME280;63802;53.232;6.570;2023-03-20T12:45:55;101761.53;;;9.17;79.95
75221;BME280;63802;53.232;6.570;2023-03-20T12:51:44;101772.50;;;9.37;80.01
75221;BME280;63802;53.232;6.570;2023-03-20T12:56:53;101774.59;;;9.53;79.63
75221;BME280;63802;53.232;6.570;2023-03-20T13:05:08;101754.25;;;9.29;81.16
75221;BME280;63802;53.232;6.570;2023-03-20T13:08:16;101772.03;;;9.35;81.79
75221;BME280;63802;53.232;6.570;2023-03-20T13:16:39;101753.16;;;9.01;83.27
75221;BME280;63802;53.232;6.570;2023-03-20T13:19:33;101767.25;;;9.03;83.64
75221;BME280;63802;53.232;6.570;2023-03-20T13:22:06;101746.34;;;8.87;84.51
75221;BME280;63802;53.232;6.570;2023-03-20T13:24:40;101756.72;;;8.93;84.66
75221;BME280;63802;53.232;6.570;2023-03-20T13:27:07;101751.53;;;9.09;84.86
75221;BME280;63802;53.232;6.570;2023-03-20T13:29:56;101759.34;;;9.10;85.12
75221;BME280;63802;53.232;6.570;2023-03-20T13:38:27;101745.91;;;8.76;86.77
75221;BME280;63802;53.232;6.570;2023-03-20T13:41:05;101746.59;;;8.73;87.03
75221;BME280;63802;53.232;6.570;2023-03-20T13:43:46;101733.81;;;8.65;87.25
75221;BME280;63802;53.232;6.570;2023-03-20T13:46:25;101743.94;;;8.47;87.46
75221;BME280;63802;53.232;6.570;2023-03-20T13:48:55;101748.28;;;8.48;88.17
75221;BME280;63802;53.232;6.570;2023-03-20T13:54:22;101739.78;;;8.50;88.54
75221;BME280;63802;53.232;6.570;2023-03-20T14:06:51;101738.09;;;8.37;89.10
75221;BME280;63802;53.232;6.570;2023-03-20T14:11:53;101709.63;;;8.17;89.53
75221;BME280;63802;53.232;6.570;2023-03-20T14:14:41;101737.41;;;8.40;89.95
75221;BME280;63802;53.232;6.570;2023-03-20T14:19:38;101724.03;;;8.18;90.10
75221;BME280;63802;53.232;6.570;2023-03-20T14:22:04;101718.91;;;8.25;90.41
75221;BME280;63802;53.232;6.570;2023-03-20T14:24:35;101721.78;;;8.20;90.58
75221;BME280;63802;53.232;6.570;2023-03-20T14:27:02;101707.91;;;8.13;90.47
75221;BME280;63802;53.232;6.570;2023-03-20T14:32:05;101702.94;;;8.15;90.90
75221;BME280;63802;53.232;6.570;2023-03-20T14:40:23;101696.84;;;8.18;91.21
75221;BME280;63802;53.232;6.570;2023-03-20T14:43:16;101697.19;;;8.07;91.17
75221;BME280;63802;53.232;6.570;2023-03-20T14:45:53;101698.13;;;8.11;91.42
75221;BME280;63802;53.232;6.570;2023-03-20T14:48:40;101691.75;;;8.07;91.69
75221;BME280;63802;53.232;6.570;2023-03-20T14:53:55;101689.22;;;8.02;92.07
75221;BME280;63802;53.232;6.570;2023-03-20T14:56:30;101684.72;;;8.06;91.73
75221;BME280;63802;53.232;6.570;2023-03-20T14:59:01;101686.03;;;8.00;91.78
75221;BME280;63802;53.232;6.570;2023-03-20T15:07:04;101680.88;;;8.07;92.35
75221;BME280;63802;53.232;6.570;2023-03-20T15:09:34;101681.53;;;8.04;92.01
75221;BME280;63802;53.232;6.570;2023-03-20T15:12:01;101693.66;;;8.07;92.26
75221;BME280;63802;53.232;6.570;2023-03-20T15:14:38;101667.31;;;7.99;92.25
75221;BME280;63802;53.232;6.570;2023-03-20T15:17:16;101686.44;;;8.11;92.45
75221;BME280;63802;53.232;6.570;2023-03-20T15:19:42;101675.28;;;8.13;92.04
75221;BME280;63802;53.232;6.570;2023-03-20T15:22:19;101691.41;;;8.18;92.14
75221;BME280;63802;53.232;6.570;2023-03-20T15:24:59;101694.13;;;8.18;92.00
75221;BME280;63802;53.232;6.570;2023-03-20T15:27:25;101692.69;;;8.20;91.98
75221;BME280;63802;53.232;6.570;2023-03-20T15:29:55;101670.00;;;8.07;92.05
75221;BME280;63802;53.232;6.570;2023-03-20T15:32:22;101659.31;;;8.02;92.06